Time;durP1;ratioP1;P1;durP2;ratioP2;P2;SDS_P1;SDS_P2;PMS_P1;PMS_P2;Temp;Humidity;BMP_temperature;BMP_pressure;BME280_temperature;BME280_humidity;BME280_pressure;Samples;Min_cycle;Max_cycle;Signal;HPM_P1;HPM_P2
2022/07/05 00:00:59;;;;;;;4.35;3.30;;;;;;;16.39;98.55;102038.13;5221297;28;20029;-70
2022/07/05 00:03:30;;;;;;;4.07;3.13;;;;;;;16.37;99.03;102040.09;5222583;28;20491;-70
2022/07/05 00:06:01;;;;;;;6.25;3.08;;;;;;;16.34;98.80;102039.53;5215101;28;20025;-70
2022/07/05 00:08:33;;;;;;;7.20;3.75;;;;;;;16.24;99.69;102028.94;5223141;28;20152;-70
2022/07/05 00:11:04;;;;;;;5.47;3.78;;;;;;;16.19;100.00;102031.19;5224178;28;20037;-71
2022/07/05 00:13:36;;;;;;;5.90;3.67;;;;;;;16.16;100.00;102021.72;5223593;28;20065;-70
2022/07/05 00:16:07;;;;;;;3.95;3.47;;;;;;;16.07;100.00;102021.72;5225090;28;20029;-70
2022/07/05 00:18:38;;;;;;;5.70;3.55;;;;;;;16.06;100.00;102020.84;5223367;28;20113;-70
2022/07/05 00:21:09;;;;;;;5.20;3.63;;;;;;;15.99;100.00;102025.03;5223691;28;20071;-70
2022/07/05 00:23:41;;;;;;;6.60;3.65;;;;;;;16.06;100.00;102026.13;5223625;28;20036;-70
2022/07/05 00:26:12;;;;;;;4.78;3.88;;;;;;;15.91;100.00;102020.44;5220773;28;20394;-70
2022/07/05 00:28:43;;;;;;;4.90;3.90;;;;;;;15.95;100.00;102026.28;5223741;28;20099;-70
2022/07/05 00:31:15;;;;;;;5.00;3.17;;;;;;;15.92;100.00;102024.75;5219460;28;20037;-70
2022/07/05 00:33:46;;;;;;;6.90;4.10;;;;;;;15.87;100.00;102032.22;5220245;28;20339;-70
2022/07/05 00:36:17;;;;;;;5.63;4.03;;;;;;;15.84;100.00;102024.59;5223497;28;20030;-70
2022/07/05 00:38:49;;;;;;;5.38;3.38;;;;;;;15.89;100.00;102022.38;5214010;28;20017;-70
2022/07/05 00:41:20;;;;;;;5.38;3.58;;;;;;;15.88;100.00;102014.59;5218730;28;20032;-70
2022/07/05 00:44:02;;;;;;;4.88;3.70;;;;;;;15.92;100.00;102021.28;5227322;28;20057;-70
2022/07/05 00:46:35;;;;;;;5.43;4.00;;;;;;;15.67;100.00;102017.31;5221501;28;20666;-70
2022/07/05 00:49:06;;;;;;;4.82;3.35;;;;;;;15.70;100.00;102012.59;5222587;28;20070;-71
2022/07/05 00:51:38;;;;;;;4.18;3.30;;;;;;;15.68;100.00;102014.53;5226251;28;20047;-70
2022/07/05 00:54:09;;;;;;;4.57;3.30;;;;;;;15.70;100.00;102019.69;5225217;28;20076;-70
2022/07/05 00:56:41;;;;;;;3.80;3.08;;;;;;;15.63;100.00;102019.34;5216157;28;20021;-70
2022/07/05 00:59:12;;;;;;;4.00;3.42;;;;;;;15.59;100.00;102025.88;5215751;28;20089;-71
2022/07/05 01:01:44;;;;;;;6.25;3.53;;;;;;;15.45;100.00;102019.13;5227111;28;20034;-71
2022/07/05 01:04:15;;;;;;;4.53;3.70;;;;;;;15.41;100.00;102025.66;5229003;28;20116;-70
2022/07/05 01:06:49;;;;;;;4.43;3.10;;;;;;;15.43;100.00;102022.91;5228660;28;20026;-69
2022/07/05 01:09:23;;;;;;;4.60;3.47;;;;;;;15.31;100.00;102030.91;5217794;28;20087;-70
2022/07/05 01:11:55;;;;;;;3.90;3.50;;;;;;;15.35;100.00;102028.00;5222482;28;20080;-70
2022/07/05 01:14:26;;;;;;;4.50;3.58;;;;;;;15.30;100.00;102031.88;5223569;28;20119;-70
2022/07/05 01:16:57;;;;;;;5.32;3.67;;;;;;;15.26;100.00;102029.63;5214470;28;20033;-70
2022/07/05 01:19:29;;;;;;;4.40;3.88;;;;;;;15.23;100.00;102024.63;5227343;28;20435;-69
2022/07/05 01:22:07;;;;;;;4.15;3.58;;;;;;;15.19;100.00;102029.31;5225859;28;20033;-71
2022/07/05 01:24:39;;;;;;;4.25;3.65;;;;;;;15.07;100.00;102028.53;5214732;28;20585;-71
2022/07/05 01:27:11;;;;;;;4.28;3.15;;;;;;;15.01;100.00;102033.53;5224327;28;20124;-71
2022/07/05 01:29:42;;;;;;;6.40;3.85;;;;;;;15.00;100.00;102031.84;5228079;28;20120;-71
2022/07/05 01:32:14;;;;;;;4.90;3.60;;;;;;;15.05;100.00;102029.66;5221923;28;20032;-71
2022/07/05 01:34:46;;;;;;;4.15;3.45;;;;;;;15.02;100.00;102028.09;5228520;28;20479;-72
2022/07/05 01:37:17;;;;;;;4.05;3.58;;;;;;;14.97;100.00;102027.66;5228192;28;20506;-71
2022/07/05 01:39:49;;;;;;;5.38;3.80;;;;;;;14.96;100.00;102027.78;5219966;28;20026;-70
2022/07/05 01:42:20;;;;;;;4.85;3.47;;;;;;;14.96;100.00;102033.06;5227100;28;20067;-71
2022/07/05 01:44:51;;;;;;;6.03;4.00;;;;;;;14.86;100.00;102026.91;5225462;28;20034;-71
2022/07/05 01:47:23;;;;;;;5.00;3.97;;;;;;;14.86;100.00;102026.91;5223523;28;20064;-71
2022/07/05 01:49:58;;;;;;;5.00;3.97;;;;;;;14.91;100.00;102030.81;5225198;28;20360;-70
2022/07/05 01:52:31;;;;;;;5.32;3.83;;;;;;;14.83;100.00;102025.34;5226109;28;20025;-70
2022/07/05 01:55:03;;;;;;;7.72;4.53;;;;;;;14.82;100.00;102024.53;5224459;28;20042;-70
2022/07/05 01:57:35;;;;;;;5.43;4.30;;;;;;;14.80;100.00;102028.25;5226400;28;20445;-70
2022/07/05 02:00:07;;;;;;;7.13;4.15;;;;;;;14.62;100.00;102017.41;5213115;28;20111;-70
2022/07/05 02:02:42;;;;;;;4.30;3.70;;;;;;;14.81;100.00;102022.00;5225461;28;20038;-71
2022/07/05 02:05:13;;;;;;;5.10;3.85;;;;;;;14.63;100.00;102021.75;5221925;28;20025;-71
2022/07/05 02:07:48;;;;;;;4.30;3.42;;;;;;;14.73;100.00;102020.00;5213898;28;20032;-71
2022/07/05 02:10:20;;;;;;;5.28;3.95;;;;;;;14.62;100.00;102017.41;5225564;28;20014;-71
2022/07/05 02:12:51;;;;;;;4.40;3.70;;;;;;;14.66;100.00;102018.00;5214613;28;20084;-70
2022/07/05 02:15:22;;;;;;;4.57;3.72;;;;;;;14.56;100.00;102015.31;5227397;28;20026;-71
2022/07/05 02:17:53;;;;;;;5.88;4.30;;;;;;;14.66;100.00;102015.38;5225708;28;20592;-71
2022/07/05 02:20:25;;;;;;;5.85;3.72;;;;;;;14.63;100.00;102019.13;5224487;28;20483;-71
2022/07/05 02:22:57;;;;;;;4.25;3.67;;;;;;;14.65;100.00;102018.97;5228099;28;20513;-71
2022/07/05 02:25:28;;;;;;;5.53;4.28;;;;;;;14.60;100.00;102022.84;5213660;28;20032;-70
2022/07/05 02:28:00;;;;;;;4.93;4.43;;;;;;;14.56;100.00;102015.31;5215951;28;20026;-69
2022/07/05 02:30:32;;;;;;;5.60;4.63;;;;;;;14.55;100.00;102016.28;5225549;28;21479;-70
2022/07/05 02:33:03;;;;;;;6.40;4.25;;;;;;;14.60;100.00;102019.38;5226825;28;20049;-71
2022/07/05 02:35:34;;;;;;;5.70;4.65;;;;;;;14.58;100.00;102010.72;5226764;28;20064;-70
2022/07/05 02:38:06;;;;;;;7.13;5.03;;;;;;;14.58;100.00;102022.13;5222965;28;20026;-70
2022/07/05 02:40:37;;;;;;;6.57;5.35;;;;;;;14.57;100.00;102024.88;5223198;28;20025;-71
2022/07/05 02:43:08;;;;;;;6.15;5.15;;;;;;;14.54;100.00;102014.59;5221805;28;20102;-70
2022/07/05 02:45:39;;;;;;;7.22;5.43;;;;;;;14.54;100.00;102022.50;5214823;28;20149;-71
2022/07/05 02:48:11;;;;;;;7.35;5.50;;;;;;;14.56;100.00;102018.78;5223852;28;20052;-70
2022/07/05 02:50:42;;;;;;;6.20;5.20;;;;;;;14.55;100.00;102014.47;5226091;28;20326;-71
2022/07/05 02:53:13;;;;;;;6.15;4.82;;;;;;;14.51;100.00;102020.13;5223655;28;20060;-70
2022/07/05 02:55:45;;;;;;;7.15;5.28;;;;;;;14.51;100.00;102023.59;5226549;28;20136;-71
2022/07/05 02:58:16;;;;;;;6.38;5.03;;;;;;;14.50;100.00;102023.72;5223141;28;20029;-71
2022/07/05 03:00:49;;;;;;;7.25;5.60;;;;;;;14.44;100.00;102029.50;5226437;28;20061;-70
2022/07/05 03:03:20;;;;;;;5.82;5.18;;;;;;;14.47;100.00;102029.22;5216075;28;20116;-71
2022/07/05 03:05:52;;;;;;;6.07;5.28;;;;;;;14.46;100.00;102032.81;5224463;28;20117;-70
2022/07/05 03:08:23;;;;;;;7.85;5.00;;;;;;;14.40;100.00;102039.44;5226425;28;20387;-69
2022/07/05 03:10:54;;;;;;;7.65;5.10;;;;;;;14.28;100.00;102030.75;5222411;28;20030;-70
2022/07/05 03:13:26;;;;;;;6.10;4.70;;;;;;;14.30;100.00;102038.50;5226865;28;20128;-71
2022/07/05 03:15:57;;;;;;;6.78;5.40;;;;;;;14.08;100.00;102045.50;5224220;28;20029;-70
2022/07/05 03:18:28;;;;;;;7.25;5.28;;;;;;;14.13;100.00;102045.16;5224187;28;20034;-71
2022/07/05 03:20:59;;;;;;;6.55;5.00;;;;;;;14.05;100.00;102040.50;5226568;28;20023;-71
2022/07/05 03:23:31;;;;;;;5.70;5.07;;;;;;;14.04;100.00;102049.34;5226688;28;20486;-71
2022/07/05 03:26:02;;;;;;;8.02;4.63;;;;;;;14.05;100.00;102058.97;5220573;28;20040;-70
2022/07/05 03:28:33;;;;;;;6.20;5.15;;;;;;;13.96;100.00;102051.78;5226807;28;20029;-72
2022/07/05 03:31:05;;;;;;;6.63;4.90;;;;;;;13.93;100.00;102049.38;5225889;28;20041;-70
2022/07/05 03:33:36;;;;;;;6.00;5.38;;;;;;;13.93;100.00;102056.44;5213230;28;20017;-71
2022/07/05 03:36:08;;;;;;;5.65;4.70;;;;;;;13.96;100.00;102051.78;5227672;28;20022;-71
2022/07/05 03:38:39;;;;;;;5.47;4.80;;;;;;;13.94;100.00;102051.06;5224291;28;20083;-70
2022/07/05 03:41:10;;;;;;;6.65;5.70;;;;;;;13.96;100.00;102053.56;5226079;28;20029;-70
2022/07/05 03:43:42;;;;;;;7.82;5.03;;;;;;;13.96;100.00;102053.56;5220457;28;20093;-70
2022/07/05 03:46:13;;;;;;;5.65;5.13;;;;;;;13.92;100.00;102054.78;5219856;28;20799;-70
2022/07/05 03:48:44;;;;;;;5.47;4.97;;;;;;;13.93;100.00;102057.28;5214115;28;20026;-70
2022/07/05 03:51:16;;;;;;;6.85;5.60;;;;;;;14.02;100.00;102063.63;5219758;28;20357;-70
2022/07/05 03:53:47;;;;;;;5.97;5.43;;;;;;;14.09;100.00;102065.66;5222523;28;20037;-70
2022/07/05 03:56:22;;;;;;;7.88;5.57;;;;;;;14.11;100.00;102065.53;5225887;28;20025;-70
2022/07/05 03:58:53;;;;;;;6.43;5.25;;;;;;;14.09;100.00;102067.44;5222130;28;20030;-71
2022/07/05 04:01:25;;;;;;;9.82;5.65;;;;;;;13.99;100.00;102064.72;5219770;28;20037;-70
2022/07/05 04:03:56;;;;;;;7.32;5.78;;;;;;;14.02;100.00;102063.63;5225028;28;20022;-70
2022/07/05 04:06:28;;;;;;;10.93;6.18;;;;;;;14.05;100.00;102060.72;5226061;28;20025;-70
2022/07/05 04:08:59;;;;;;;6.65;5.93;;;;;;;14.09;100.00;102073.56;5223703;28;20026;-70
2022/07/05 04:11:30;;;;;;;11.85;6.57;;;;;;;14.23;100.00;102080.34;5222904;28;20044;-70
2022/07/05 04:14:01;;;;;;;9.77;6.28;;;;;;;14.27;100.00;102073.03;5227753;28;20033;-69
2022/07/05 04:16:33;;;;;;;9.38;5.97;;;;;;;14.28;100.00;102075.56;5212642;28;20109;-70
2022/07/05 04:19:04;;;;;;;8.43;6.32;;;;;;;14.35;100.00;102078.50;5221780;28;20026;-70
2022/07/05 04:21:35;;;;;;;9.93;6.20;;;;;;;14.35;100.00;102083.78;5225401;28;20509;-70
2022/07/05 04:24:07;;;;;;;11.93;6.43;;;;;;;14.45;100.00;102078.59;5224810;28;20064;-70
2022/07/05 04:26:38;;;;;;;9.68;6.63;;;;;;;14.52;100.00;102075.38;5218524;28;20497;-69
2022/07/05 04:29:10;;;;;;;8.65;6.50;;;;;;;14.60;100.00;102077.38;5223932;28;20036;-70
2022/07/05 04:31:41;;;;;;;9.38;6.43;;;;;;;14.60;100.00;102077.38;5223584;28;20487;-70
2022/07/05 04:34:13;;;;;;;7.50;6.28;;;;;;;14.79;100.00;102079.34;5222163;28;20049;-70
2022/07/05 04:36:44;;;;;;;7.90;6.45;;;;;;;14.78;100.00;102069.75;5221658;28;20026;-70
2022/07/05 04:39:15;;;;;;;8.90;7.57;;;;;;;14.80;100.00;102073.94;5227595;28;20017;-71
2022/07/05 04:41:46;;;;;;;7.65;6.72;;;;;;;14.90;100.00;102071.38;5221180;28;20049;-70
2022/07/05 04:44:18;;;;;;;8.85;7.10;;;;;;;14.93;100.00;102075.56;5219863;28;20092;-70
2022/07/05 04:46:49;;;;;;;7.60;6.82;;;;;;;15.06;100.00;102071.75;5222981;28;20040;-70
2022/07/05 04:49:20;;;;;;;9.30;7.03;;;;;;;15.12;100.00;102085.41;5220887;28;20026;-70
2022/07/05 04:51:51;;;;;;;9.70;7.18;;;;;;;15.05;100.00;102070.09;5223838;28;20060;-70
2022/07/05 04:54:23;;;;;;;7.28;6.55;;;;;;;15.12;100.00;102073.03;5211369;28;20401;-70
2022/07/05 04:56:54;;;;;;;8.57;7.78;;;;;;;15.23;100.00;102080.06;5224784;28;20438;-71
2022/07/05 04:59:25;;;;;;;7.88;7.07;;;;;;;15.30;100.00;102067.97;5217285;28;20047;-71
2022/07/05 05:01:57;;;;;;;8.77;7.72;;;;;;;15.31;100.00;102075.78;5223334;28;20029;-70
2022/07/05 05:04:28;;;;;;;9.05;7.70;;;;;;;15.49;100.00;102078.66;5228853;28;20059;-71
2022/07/05 05:06:59;;;;;;;8.88;7.95;;;;;;;15.56;100.00;102081.59;5213151;28;20026;-69
2022/07/05 05:09:31;;;;;;;8.90;7.35;;;;;;;15.64;100.00;102073.00;5222220;28;20068;-70
2022/07/05 05:12:02;;;;;;;8.52;7.72;;;;;;;15.69;100.00;102071.69;5222211;28;20029;-69
2022/07/05 05:14:33;;;;;;;12.43;7.47;;;;;;;15.77;100.00;102077.13;5220678;28;20025;-71
2022/07/05 05:17:05;;;;;;;12.60;8.95;;;;;;;15.79;100.00;102082.28;5219684;28;20317;-71
2022/07/05 05:19:36;;;;;;;13.23;7.95;;;;;;;15.88;100.00;102075.38;5224040;28;20018;-70
2022/07/05 05:22:07;;;;;;;9.95;8.30;;;;;;;15.94;100.00;102075.66;5221749;28;20022;-70
2022/07/05 05:24:38;;;;;;;9.02;8.13;;;;;;;15.96;100.00;102081.66;5226791;28;20037;-71
2022/07/05 05:27:10;;;;;;;9.23;8.05;;;;;;;16.10;100.00;102088.38;5224048;28;20087;-69
2022/07/05 05:29:41;;;;;;;10.20;8.98;;;;;;;16.12;100.00;102094.34;5219052;28;20030;-71
2022/07/05 05:32:12;;;;;;;10.27;8.45;;;;;;;16.22;100.00;102086.44;5209926;28;20111;-70
2022/07/05 05:34:43;;;;;;;10.98;9.15;;;;;;;16.28;100.00;102096.44;5221003;28;20034;-71
2022/07/05 05:37:15;;;;;;;9.40;8.40;;;;;;;16.30;100.00;102090.06;5210149;28;20041;-71
2022/07/05 05:39:46;;;;;;;9.25;8.35;;;;;;;16.40;100.00;102105.09;5225022;28;20022;-71
2022/07/05 05:42:17;;;;;;;9.10;8.27;;;;;;;16.48;100.00;102105.28;5226450;28;20014;-72
2022/07/05 05:44:49;;;;;;;10.65;8.25;;;;;;;16.46;100.00;102112.50;5225275;28;20526;-71
2022/07/05 05:47:20;;;;;;;9.20;8.25;;;;;;;16.52;100.00;102104.00;5222003;28;20032;-71
2022/07/05 05:49:51;;;;;;;12.73;8.85;;;;;;;16.66;100.00;102105.41;5224782;28;20030;-71
2022/07/05 05:52:22;;;;;;;9.55;8.75;;;;;;;16.64;100.00;102110.84;5224163;28;20068;-71
2022/07/05 05:54:54;;;;;;;11.40;8.98;;;;;;;16.73;100.00;102111.81;5226525;28;20033;-71
2022/07/05 05:57:25;;;;;;;10.35;9.23;;;;;;;16.81;100.00;102113.78;5222025;28;20041;-71
2022/07/05 05:59:56;;;;;;;9.75;8.70;;;;;;;16.92;100.00;102122.41;5223290;28;20022;-71
2022/07/05 06:02:27;;;;;;;10.18;9.18;;;;;;;16.88;100.00;102114.91;5218609;28;20037;-70
2022/07/05 06:04:59;;;;;;;10.23;9.05;;;;;;;17.01;100.00;102118.13;5225823;28;20032;-72
2022/07/05 06:07:30;;;;;;;11.85;8.73;;;;;;;17.06;100.00;102126.47;5219854;28;20072;-70
2022/07/05 06:10:01;;;;;;;14.95;8.93;;;;;;;17.14;100.00;102118.63;5224121;28;20029;-71
2022/07/05 06:12:33;;;;;;;11.63;9.23;;;;;;;17.17;100.00;102115.72;5227450;28;20029;-71
2022/07/05 06:15:04;;;;;;;10.30;9.15;;;;;;;17.18;100.00;102127.97;5225160;28;20025;-71
2022/07/05 06:17:39;;;;;;;10.18;9.18;;;;;;;17.30;100.00;102126.00;5225571;28;20026;-71
2022/07/05 06:20:16;;;;;;;9.77;8.88;;;;;;;17.29;100.00;102124.31;5225495;28;20125;-71
2022/07/05 06:22:48;;;;;;;9.77;8.60;;;;;;;17.42;100.00;102124.84;5226238;28;20037;-71
2022/07/05 06:25:20;;;;;;;10.13;8.77;;;;;;;17.59;100.00;102138.34;5227098;28;20018;-71
2022/07/05 06:27:55;;;;;;;8.82;7.55;;;;;;;17.61;100.00;102129.25;5226133;28;20026;-71
2022/07/05 06:30:28;;;;;;;9.40;8.40;;;;;;;17.73;100.00;102133.41;5226873;28;20068;-70
2022/07/05 06:33:00;;;;;;;9.75;7.35;;;;;;;17.73;100.00;102140.53;5223165;28;20091;-71
2022/07/05 06:35:31;;;;;;;9.40;7.80;;;;;;;17.83;100.00;102145.81;5226978;28;20066;-71
2022/07/05 06:38:05;;;;;;;9.65;8.65;;;;;;;17.90;100.00;102144.25;5225054;28;20026;-71
2022/07/05 06:40:44;;;;;;;9.02;7.75;;;;;;;18.07;100.00;102140.81;5223202;28;20185;-72
2022/07/05 06:43:15;;;;;;;9.70;7.68;;;;;;;18.10;100.00;102137.03;5218793;28;20115;-72
2022/07/05 06:45:48;;;;;;;10.30;8.73;;;;;;;18.18;100.00;102135.31;5200228;28;20033;-71
2022/07/05 06:48:19;;;;;;;8.88;7.93;;;;;;;18.32;100.00;102138.44;5203051;28;20061;-71
2022/07/05 06:50:50;;;;;;;10.43;8.13;;;;;;;18.37;100.00;102133.50;5209964;28;20025;-71
2022/07/05 06:53:22;;;;;;;9.57;8.53;;;;;;;18.35;100.00;102149.59;5222687;28;20799;-71
2022/07/05 06:55:53;;;;;;;8.77;7.95;;;;;;;18.39;100.00;102142.16;5219287;28;20048;-72
2022/07/05 06:58:25;;;;;;;8.63;7.70;;;;;;;18.36;100.00;102137.97;5220715;28;20609;-72
2022/07/05 07:00:56;;;;;;;12.32;8.35;;;;;;;18.50;100.00;102141.94;5217114;28;20503;-71
2022/07/05 07:03:27;;;;;;;9.90;8.40;;;;;;;18.67;100.00;102141.09;5216040;28;20034;-71
2022/07/05 07:05:58;;;;;;;9.45;7.90;;;;;;;18.81;100.00;102141.59;5222546;28;20505;-72
2022/07/05 07:11:20;;;;;;;9.13;7.25;;;;;;;19.32;100.00;102140.00;5224231;28;20038;-71
2022/07/05 07:13:51;;;;;;;9.45;6.63;;;;;;;19.46;96.07;102147.41;5221110;28;20038;-72
2022/07/05 07:16:22;;;;;;;7.67;6.57;;;;;;;19.64;95.48;102153.53;5214792;28;20042;-72
2022/07/05 07:18:54;;;;;;;10.57;6.83;;;;;;;19.78;96.32;102146.78;5226502;28;21148;-72
2022/07/05 07:21:25;;;;;;;7.57;6.73;;;;;;;19.85;96.91;102153.16;5219675;28;20026;-72
2022/07/05 07:23:56;;;;;;;7.50;6.22;;;;;;;19.93;94.75;102145.19;5218914;28;20033;-72
2022/07/05 07:26:28;;;;;;;10.30;7.10;;;;;;;19.84;93.40;102148.81;5216456;28;20030;-72
2022/07/05 07:28:59;;;;;;;11.05;6.45;;;;;;;19.95;92.39;102146.84;5213788;28;20509;-72
2022/07/05 07:31:30;;;;;;;8.77;6.45;;;;;;;20.08;92.28;102141.94;5223598;28;20034;-72
2022/07/05 07:34:01;;;;;;;10.77;6.70;;;;;;;20.04;91.14;102146.75;5217716;28;20030;-72
2022/07/05 07:36:33;;;;;;;7.27;5.93;;;;;;;20.21;93.00;102152.13;5217675;28;20395;-72
2022/07/05 07:39:04;;;;;;;11.67;6.87;;;;;;;20.22;91.25;102159.09;5217238;28;20530;-72
2022/07/05 07:41:35;;;;;;;9.07;5.83;;;;;;;20.21;91.61;102154.78;5215016;28;20380;-72
2022/07/05 07:44:07;;;;;;;10.60;5.47;;;;;;;20.34;91.89;102163.97;5217911;28;20354;-72
2022/07/05 07:46:41;;;;;;;9.40;5.53;;;;;;;20.36;91.42;102156.66;5218323;28;20029;-72
2022/07/05 07:49:12;;;;;;;10.95;5.35;;;;;;;20.45;90.01;102165.47;5219913;28;20028;-72
2022/07/05 07:51:44;;;;;;;13.20;5.80;;;;;;;20.57;89.39;102158.91;5212941;28;20479;-72
2022/07/05 07:54:15;;;;;;;9.13;5.47;;;;;;;20.65;89.50;102158.91;5220886;28;20061;-72
2022/07/05 07:56:46;;;;;;;10.47;5.23;;;;;;;20.69;88.78;102155.91;5217442;28;20037;-72
2022/07/05 07:59:18;;;;;;;14.03;6.00;;;;;;;20.76;86.93;102167.56;5219420;28;20092;-72
2022/07/05 08:01:49;;;;;;;9.97;5.87;;;;;;;20.84;88.04;102156.94;5214953;28;20036;-72
2022/07/05 08:04:20;;;;;;;7.97;5.70;;;;;;;21.02;87.08;102167.41;5203982;28;20068;-72
2022/07/05 08:06:52;;;;;;;14.03;5.47;;;;;;;21.12;85.68;102155.56;5214125;28;20101;-72
2022/07/05 08:09:23;;;;;;;7.83;5.63;;;;;;;21.11;84.66;102167.25;5221838;28;20069;-72
2022/07/05 08:11:54;;;;;;;12.80;6.47;;;;;;;21.17;84.94;102160.41;5222165;28;20037;-72
2022/07/05 08:14:25;;;;;;;9.00;6.03;;;;;;;21.19;85.26;102162.91;5222825;28;20550;-72
2022/07/05 08:16:58;;;;;;;11.93;6.90;;;;;;;21.23;84.17;102164.25;5221933;28;20116;-72
2022/07/05 08:22:20;;;;;;;13.82;7.70;;;;;;;21.27;84.27;102174.41;5218519;28;20125;-71
2022/07/05 08:24:51;;;;;;;9.63;7.27;;;;;;;21.44;83.20;102175.25;5216183;28;20108;-71
2022/07/05 08:27:22;;;;;;;12.23;7.30;;;;;;;21.42;82.49;102173.75;5220374;28;20033;-71
2022/07/05 08:29:53;;;;;;;13.23;8.30;;;;;;;21.67;82.36;102177.19;5218453;28;20075;-71
2022/07/05 08:32:25;;;;;;;11.33;7.37;;;;;;;21.50;82.66;102179.88;5213165;28;20358;-71
2022/07/05 08:34:56;;;;;;;11.33;6.90;;;;;;;21.65;81.63;102173.88;5218627;28;20324;-71
2022/07/05 08:37:27;;;;;;;13.87;7.67;;;;;;;21.59;79.91;102178.03;5219904;28;20032;-71
2022/07/05 08:39:59;;;;;;;8.90;6.17;;;;;;;21.78;82.16;102175.00;5222694;28;20029;-71
2022/07/05 08:42:30;;;;;;;10.47;6.60;;;;;;;21.83;82.76;102175.31;5215945;28;20033;-72
2022/07/05 08:45:02;;;;;;;11.67;6.37;;;;;;;21.89;79.32;102172.94;5221813;28;20507;-71
2022/07/05 08:47:34;;;;;;;12.07;6.45;;;;;;;21.99;79.75;102176.25;5217691;28;20035;-71
2022/07/05 08:50:08;;;;;;;10.80;6.75;;;;;;;21.94;78.80;102159.94;5216299;28;20065;-73
2022/07/05 08:52:41;;;;;;;9.05;5.93;;;;;;;21.89;75.83;102162.28;5222219;28;20418;-74
2022/07/05 08:55:13;;;;;;;10.57;4.95;;;;;;;22.01;71.37;102163.56;5222233;28;20075;-73
2022/07/05 08:57:44;;;;;;;6.57;4.53;;;;;;;22.39;76.73;102166.41;5218337;28;20036;-72
2022/07/05 09:00:16;;;;;;;7.23;4.97;;;;;;;22.61;72.89;102167.44;5208673;28;20495;-73
2022/07/05 09:02:50;;;;;;;9.07;4.63;;;;;;;22.99;72.42;102165.66;5219576;28;20022;-72
2022/07/05 09:05:29;;;;;;;8.88;4.85;;;;;;;23.04;67.53;102166.81;5216194;28;20021;-73
2022/07/05 09:08:01;;;;;;;8.18;5.20;;;;;;;22.87;64.92;102170.59;5215042;28;20030;-74
2022/07/05 09:10:33;;;;;;;9.90;5.33;;;;;;;22.81;64.62;102165.97;5221145;28;20506;-74
2022/07/05 09:13:04;;;;;;;9.70;4.80;;;;;;;23.01;66.64;102169.84;5220232;28;20460;-74
2022/07/05 09:15:39;;;;;;;7.20;4.70;;;;;;;22.98;64.32;102172.03;5226937;28;20107;-73
2022/07/05 09:18:10;;;;;;;7.43;4.68;;;;;;;22.98;64.83;102175.53;5226466;28;20033;-73
2022/07/05 09:20:42;;;;;;;11.67;4.83;;;;;;;22.86;59.45;102171.59;5224587;28;20079;-73
2022/07/05 09:23:20;;;;;;;6.37;3.60;;;;;;;22.72;58.21;102181.22;5220623;28;20113;-73
2022/07/05 09:26:01;;;;;;;7.80;3.55;;;;;;;23.00;61.21;102170.84;5222300;28;20068;-73
2022/07/05 09:28:33;;;;;;;7.15;4.28;;;;;;;22.87;61.31;102161.75;5231020;28;20539;-73
2022/07/05 09:31:04;;;;;;;9.70;4.27;;;;;;;23.25;60.27;102173.28;5217268;28;20098;-73
2022/07/05 09:33:49;;;;;;;7.93;3.97;;;;;;;23.75;60.61;102169.13;5205795;28;20025;-73
2022/07/05 09:36:20;;;;;;;6.88;3.05;;;;;;;23.71;54.39;102168.66;5224428;28;20478;-73
2022/07/05 09:38:52;;;;;;;4.93;2.53;;;;;;;24.02;54.95;102165.78;5224273;28;20026;-72
2022/07/05 09:41:23;;;;;;;10.20;4.40;;;;;;;24.21;56.33;102160.88;5220313;28;20048;-74
2022/07/05 09:43:54;;;;;;;8.43;4.50;;;;;;;24.26;54.48;102164.63;5221623;28;20065;-74
2022/07/05 09:46:32;;;;;;;7.13;3.57;;;;;;;24.66;49.68;102156.19;5225487;28;20029;-74
2022/07/05 09:49:04;;;;;;;8.50;3.08;;;;;;;24.57;50.64;102147.47;5219749;28;20084;-74
2022/07/05 09:51:48;;;;;;;3.83;2.37;;;;;;;24.68;49.33;102159.53;5225360;28;20041;-74
2022/07/05 09:54:19;;;;;;;5.85;2.50;;;;;;;24.26;49.68;102148.56;5219855;28;20117;-73
2022/07/05 09:56:50;;;;;;;8.13;2.70;;;;;;;24.19;49.73;102152.19;5216652;28;20495;-75
2022/07/05 09:59:21;;;;;;;10.00;2.70;;;;;;;23.85;46.12;102155.47;5221630;28;20026;-75
2022/07/05 10:01:53;;;;;;;4.43;1.90;;;;;;;23.75;47.73;102147.72;5225812;28;20030;-75
2022/07/05 10:04:24;;;;;;;4.57;2.13;;;;;;;23.77;49.55;102157.22;5222835;28;20066;-75
2022/07/05 10:06:55;;;;;;;5.17;2.37;;;;;;;23.68;49.24;102154.84;5218841;28;20037;-75
2022/07/05 10:09:27;;;;;;;8.13;2.67;;;;;;;23.52;50.40;102156.66;5223550;28;20076;-74
2022/07/05 10:11:59;;;;;;;8.10;2.60;;;;;;;23.43;51.56;102159.59;5213753;28;20064;-75
2022/07/05 10:14:30;;;;;;;9.87;3.43;;;;;;;23.60;49.85;102166.44;5223597;28;20034;-75
2022/07/05 10:17:04;;;;;;;4.53;2.77;;;;;;;23.63;50.02;102173.25;5202366;28;20036;-75
2022/07/05 10:19:43;;;;;;;6.43;3.28;;;;;;;23.89;51.80;102159.44;5221035;28;21348;-75
2022/07/05 10:22:15;;;;;;;9.80;3.72;;;;;;;23.99;53.46;102168.84;5220529;28;20021;-75
2022/07/05 10:24:48;;;;;;;7.17;3.20;;;;;;;24.08;51.47;102168.72;5221882;28;20119;-75
2022/07/05 10:27:19;;;;;;;;;;;;;;;24.90;52.19;102163.03;5224849;28;20056;-75
2022/07/05 10:29:52;;;;;;;5.70;2.53;;;;;;;24.76;48.20;102164.75;5204957;28;20094;-75
2022/07/05 10:32:25;;;;;;;;;;;;;;;25.36;48.05;102160.75;5210630;28;20048;-75
2022/07/05 10:34:58;;;;;;;7.38;3.13;;;;;;;24.36;46.78;102167.03;5218101;28;19960;-75
2022/07/05 10:37:32;;;;;;;5.82;2.25;;;;;;;24.33;48.81;102163.88;5210940;28;20514;-74
2022/07/05 10:40:06;;;;;;;6.63;2.55;;;;;;;24.02;49.17;102167.66;5223721;28;20033;-75
2022/07/05 10:42:39;;;;;;;4.35;2.40;;;;;;;24.10;48.49;102158.69;5224564;28;20073;-75
2022/07/05 10:45:33;;;;;;;4.97;2.20;;;;;;;24.39;48.36;102158.63;5220665;28;20029;-75
2022/07/05 10:48:11;;;;;;;6.35;2.22;;;;;;;24.59;48.03;102156.16;5218630;28;20025;-75
2022/07/05 10:50:48;;;;;;;3.53;2.00;;;;;;;24.74;49.29;102150.75;5222325;28;20124;-77
2022/07/05 10:53:32;;;;;;;4.38;2.30;;;;;;;24.62;46.20;102153.06;5226087;28;20132;-76
2022/07/05 10:56:03;;;;;;;4.03;1.95;;;;;;;24.73;45.54;102160.59;5224113;28;20021;-76
2022/07/05 10:58:39;;;;;;;6.73;2.23;;;;;;;24.86;46.27;102156.41;5218975;28;20025;-76
2022/07/05 11:01:19;;;;;;;6.43;2.53;;;;;;;24.69;45.18;102167.38;5220845;28;20033;-76
2022/07/05 11:04:02;;;;;;;6.95;1.98;;;;;;;24.60;44.29;102170.38;5205347;28;20184;-76
2022/07/05 11:06:41;;;;;;;5.47;2.35;;;;;;;24.55;44.78;102157.56;5217532;28;20431;-76
2022/07/05 11:09:16;;;;;;;3.88;1.83;;;;;;;24.24;45.56;102165.81;5221427;28;20033;-76
2022/07/05 11:11:50;;;;;;;3.00;1.77;;;;;;;24.11;44.41;102171.88;5220866;28;20059;-76
2022/07/05 11:14:22;;;;;;;3.20;1.63;;;;;;;24.18;45.72;102174.63;5223251;28;20072;-76
2022/07/05 11:17:08;;;;;;;3.33;1.30;;;;;;;24.43;46.30;102183.19;5221360;28;20060;-76
2022/07/05 11:20:11;;;;;;;4.28;1.67;;;;;;;24.20;47.07;102176.09;5222679;28;20816;-76
2022/07/05 11:23:03;;;;;;;5.82;1.50;;;;;;;24.11;48.24;102184.44;5216325;28;20399;-76
2022/07/05 11:25:40;;;;;;;4.78;1.77;;;;;;;23.95;48.03;102174.75;5221246;28;20035;-76
2022/07/05 11:28:12;;;;;;;5.65;2.20;;;;;;;23.74;48.71;102179.00;5221953;28;20071;-76
2022/07/05 11:30:48;;;;;;;7.93;2.58;;;;;;;23.72;47.13;102172.19;5221899;28;20065;-76
2022/07/05 11:33:31;;;;;;;5.53;2.05;;;;;;;23.61;49.49;102169.94;5220250;28;20137;-76
2022/07/05 11:36:05;;;;;;;6.07;1.95;;;;;;;23.45;48.37;102168.25;5226662;28;20025;-75
2022/07/05 11:39:06;;;;;;;5.25;2.30;;;;;;;23.83;49.25;102171.72;5223897;28;20033;-76
2022/07/05 11:41:40;;;;;;;5.05;2.13;;;;;;;23.73;49.56;102169.31;5220620;28;20029;-76
2022/07/05 11:44:12;;;;;;;5.03;2.17;;;;;;;23.90;47.06;102172.63;5208578;28;20033;-73
2022/07/05 11:46:44;;;;;;;5.75;1.75;;;;;;;24.33;47.57;102159.34;5221202;28;20378;-73
2022/07/05 11:49:20;;;;;;;5.10;1.50;;;;;;;24.63;46.90;102153.94;5219550;28;20443;-73